sensor_id;sensor_type;location;lat;lon;timestamp;P1;durP1;ratioP1;P2;durP2;ratioP2
76626;SDS011;65519;53.230;10.390;2024-01-11T00:00:56;36.72;;;12.13;;
76626;SDS011;65519;53.230;10.390;2024-01-11T00:03:24;32.38;;;12.55;;
76626;SDS011;65519;53.230;10.390;2024-01-11T00:05:49;30.35;;;11.07;;
76626;SDS011;65519;53.230;10.390;2024-01-11T00:08:16;33.35;;;11.98;;
76626;SDS011;65519;53.230;10.390;2024-01-11T00:10:41;31.23;;;11.02;;
76626;SDS011;65519;53.230;10.390;2024-01-11T00:13:06;29.13;;;10.25;;
76626;SDS011;65519;53.230;10.390;2024-01-11T00:15:32;28.27;;;10.98;;
76626;SDS011;65519;53.230;10.390;2024-01-11T00:17:57;30.77;;;10.23;;
76626;SDS011;65519;53.230;10.390;2024-01-11T00:20:23;30.55;;;10.75;;
76626;SDS011;65519;53.230;10.390;2024-01-11T00:22:48;24.10;;;11.20;;
76626;SDS011;65519;53.230;10.390;2024-01-11T00:25:14;38.03;;;12.50;;
76626;SDS011;65519;53.230;10.390;2024-01-11T00:27:39;36.15;;;11.73;;
76626;SDS011;65519;53.230;10.390;2024-01-11T00:30:05;31.85;;;10.35;;
76626;SDS011;65519;53.230;10.390;2024-01-11T00:32:31;33.83;;;11.23;;
76626;SDS011;65519;53.230;10.390;2024-01-11T00:34:56;26.13;;;10.73;;
76626;SDS011;65519;53.230;10.390;2024-01-11T00:37:22;30.58;;;10.93;;
76626;SDS011;65519;53.230;10.390;2024-01-11T00:39:47;29.67;;;10.90;;
76626;SDS011;65519;53.230;10.390;2024-01-11T00:42:13;30.38;;;10.45;;
76626;SDS011;65519;53.230;10.390;2024-01-11T00:44:38;29.40;;;11.32;;
76626;SDS011;65519;53.230;10.390;2024-01-11T00:47:04;30.48;;;10.80;;
76626;SDS011;65519;53.230;10.390;2024-01-11T00:49:29;25.80;;;11.07;;
76626;SDS011;65519;53.230;10.390;2024-01-11T00:51:55;24.85;;;11.02;;
76626;SDS011;65519;53.230;10.390;2024-01-11T00:54:20;24.27;;;10.43;;
76626;SDS011;65519;53.230;10.390;2024-01-11T00:56:46;30.67;;;11.43;;
76626;SDS011;65519;53.230;10.390;2024-01-11T00:59:12;29.85;;;10.82;;
76626;SDS011;65519;53.230;10.390;2024-01-11T01:01:38;31.33;;;12.57;;
76626;SDS011;65519;53.230;10.390;2024-01-11T01:04:03;28.35;;;10.35;;
76626;SDS011;65519;53.230;10.390;2024-01-11T01:06:29;30.05;;;12.20;;
76626;SDS011;65519;53.230;10.390;2024-01-11T01:08:55;24.48;;;9.85;;
76626;SDS011;65519;53.230;10.390;2024-01-11T01:11:20;24.88;;;8.90;;
76626;SDS011;65519;53.230;10.390;2024-01-11T01:13:46;28.85;;;9.98;;
76626;SDS011;65519;53.230;10.390;2024-01-11T01:16:11;25.70;;;11.50;;
76626;SDS011;65519;53.230;10.390;2024-01-11T01:18:37;23.40;;;10.30;;
76626;SDS011;65519;53.230;10.390;2024-01-11T01:21:02;26.10;;;10.43;;
76626;SDS011;65519;53.230;10.390;2024-01-11T01:23:28;25.60;;;10.13;;
76626;SDS011;65519;53.230;10.390;2024-01-11T01:25:53;24.48;;;10.30;;
76626;SDS011;65519;53.230;10.390;2024-01-11T01:28:19;28.05;;;10.25;;
76626;SDS011;65519;53.230;10.390;2024-01-11T01:30:44;24.05;;;9.40;;
76626;SDS011;65519;53.230;10.390;2024-01-11T01:33:10;22.30;;;9.00;;
76626;SDS011;65519;53.230;10.390;2024-01-11T01:35:35;28.55;;;10.35;;
76626;SDS011;65519;53.230;10.390;2024-01-11T01:38:01;24.08;;;10.50;;
76626;SDS011;65519;53.230;10.390;2024-01-11T01:40:29;25.38;;;9.05;;
76626;SDS011;65519;53.230;10.390;2024-01-11T01:42:58;22.40;;;9.10;;
76626;SDS011;65519;53.230;10.390;2024-01-11T01:45:27;24.73;;;11.52;;
76626;SDS011;65519;53.230;10.390;2024-01-11T01:47:52;27.13;;;10.05;;
76626;SDS011;65519;53.230;10.390;2024-01-11T01:50:18;32.53;;;11.88;;
76626;SDS011;65519;53.230;10.390;2024-01-11T01:52:45;27.33;;;9.82;;
76626;SDS011;65519;53.230;10.390;2024-01-11T01:55:12;25.55;;;9.70;;
76626;SDS011;65519;53.230;10.390;2024-01-11T01:57:40;23.25;;;10.48;;
76626;SDS011;65519;53.230;10.390;2024-01-11T02:00:10;22.92;;;9.75;;
76626;SDS011;65519;53.230;10.390;2024-01-11T02:02:36;27.65;;;10.85;;
76626;SDS011;65519;53.230;10.390;2024-01-11T02:05:04;31.33;;;10.13;;
76626;SDS011;65519;53.230;10.390;2024-01-11T02:07:31;22.80;;;9.95;;
76626;SDS011;65519;53.230;10.390;2024-01-11T02:09:57;24.90;;;10.02;;
76626;SDS011;65519;53.230;10.390;2024-01-11T02:12:23;27.63;;;10.23;;
76626;SDS011;65519;53.230;10.390;2024-01-11T02:14:49;34.75;;;10.90;;
76626;SDS011;65519;53.230;10.390;2024-01-11T02:17:15;27.98;;;10.85;;
76626;SDS011;65519;53.230;10.390;2024-01-11T02:19:40;32.45;;;11.18;;
76626;SDS011;65519;53.230;10.390;2024-01-11T02:22:08;30.42;;;12.02;;
76626;SDS011;65519;53.230;10.390;2024-01-11T02:27:06;27.50;;;9.90;;
76626;SDS011;65519;53.230;10.390;2024-01-11T02:29:33;25.83;;;9.07;;
76626;SDS011;65519;53.230;10.390;2024-01-11T02:31:59;32.85;;;11.32;;
76626;SDS011;65519;53.230;10.390;2024-01-11T02:34:26;26.42;;;11.98;;
76626;SDS011;65519;53.230;10.390;2024-01-11T02:36:55;29.65;;;8.88;;
76626;SDS011;65519;53.230;10.390;2024-01-11T02:39:22;27.75;;;11.13;;
76626;SDS011;65519;53.230;10.390;2024-01-11T02:41:52;29.25;;;11.20;;
76626;SDS011;65519;53.230;10.390;2024-01-11T02:44:19;26.77;;;9.45;;
76626;SDS011;65519;53.230;10.390;2024-01-11T02:46:45;28.55;;;11.65;;
76626;SDS011;65519;53.230;10.390;2024-01-11T02:49:10;27.48;;;10.15;;
76626;SDS011;65519;53.230;10.390;2024-01-11T02:51:36;25.95;;;11.45;;
76626;SDS011;65519;53.230;10.390;2024-01-11T02:54:01;23.25;;;9.30;;
76626;SDS011;65519;53.230;10.390;2024-01-11T02:56:27;29.27;;;10.85;;
76626;SDS011;65519;53.230;10.390;2024-01-11T02:58:52;25.52;;;9.13;;
76626;SDS011;65519;53.230;10.390;2024-01-11T03:01:18;26.15;;;10.48;;
76626;SDS011;65519;53.230;10.390;2024-01-11T03:03:43;19.48;;;9.95;;
76626;SDS011;65519;53.230;10.390;2024-01-11T03:06:09;27.48;;;10.80;;
76626;SDS011;65519;53.230;10.390;2024-01-11T03:08:35;28.38;;;10.70;;
76626;SDS011;65519;53.230;10.390;2024-01-11T03:11:00;29.52;;;11.70;;
76626;SDS011;65519;53.230;10.390;2024-01-11T03:13:26;26.90;;;11.45;;
76626;SDS011;65519;53.230;10.390;2024-01-11T03:15:52;27.60;;;11.13;;
76626;SDS011;65519;53.230;10.390;2024-01-11T03:18:17;33.00;;;11.95;;
76626;SDS011;65519;53.230;10.390;2024-01-11T03:20:42;34.47;;;12.38;;
76626;SDS011;65519;53.230;10.390;2024-01-11T03:23:08;28.98;;;11.38;;
76626;SDS011;65519;53.230;10.390;2024-01-11T03:25:34;30.98;;;10.80;;
76626;SDS011;65519;53.230;10.390;2024-01-11T03:27:59;35.97;;;13.75;;
76626;SDS011;65519;53.230;10.390;2024-01-11T03:30:25;31.63;;;11.88;;
76626;SDS011;65519;53.230;10.390;2024-01-11T03:32:50;32.35;;;11.95;;
76626;SDS011;65519;53.230;10.390;2024-01-11T03:35:17;29.98;;;11.68;;
76626;SDS011;65519;53.230;10.390;2024-01-11T03:37:43;33.70;;;12.55;;
76626;SDS011;65519;53.230;10.390;2024-01-11T03:40:08;33.35;;;12.35;;
76626;SDS011;65519;53.230;10.390;2024-01-11T03:42:34;27.45;;;11.13;;
76626;SDS011;65519;53.230;10.390;2024-01-11T03:45:00;31.02;;;10.95;;
76626;SDS011;65519;53.230;10.390;2024-01-11T03:47:25;37.83;;;13.70;;
76626;SDS011;65519;53.230;10.390;2024-01-11T03:49:51;36.85;;;12.90;;
76626;SDS011;65519;53.230;10.390;2024-01-11T03:52:16;35.05;;;12.82;;
76626;SDS011;65519;53.230;10.390;2024-01-11T03:54:42;35.17;;;13.20;;
76626;SDS011;65519;53.230;10.390;2024-01-11T03:57:07;37.88;;;13.52;;
76626;SDS011;65519;53.230;10.390;2024-01-11T03:59:33;40.92;;;14.65;;
76626;SDS011;65519;53.230;10.390;2024-01-11T04:01:58;43.55;;;13.30;;
76626;SDS011;65519;53.230;10.390;2024-01-11T04:04:24;39.80;;;14.50;;
76626;SDS011;65519;53.230;10.390;2024-01-11T04:06:50;30.88;;;13.70;;
76626;SDS011;65519;53.230;10.390;2024-01-11T04:09:16;35.22;;;12.18;;
76626;SDS011;65519;53.230;10.390;2024-01-11T04:11:42;38.55;;;13.88;;
76626;SDS011;65519;53.230;10.390;2024-01-11T04:14:07;36.28;;;12.15;;
76626;SDS011;65519;53.230;10.390;2024-01-11T04:16:33;32.47;;;12.35;;
76626;SDS011;65519;53.230;10.390;2024-01-11T04:18:58;35.85;;;13.80;;
76626;SDS011;65519;53.230;10.390;2024-01-11T04:21:25;36.60;;;12.75;;
76626;SDS011;65519;53.230;10.390;2024-01-11T04:23:54;40.58;;;12.77;;
76626;SDS011;65519;53.230;10.390;2024-01-11T04:26:20;35.70;;;11.27;;
76626;SDS011;65519;53.230;10.390;2024-01-11T04:28:46;46.35;;;16.10;;
76626;SDS011;65519;53.230;10.390;2024-01-11T04:31:13;43.25;;;15.80;;
76626;SDS011;65519;53.230;10.390;2024-01-11T04:33:41;44.63;;;15.75;;
76626;SDS011;65519;53.230;10.390;2024-01-11T04:36:08;50.13;;;16.15;;
76626;SDS011;65519;53.230;10.390;2024-01-11T04:38:34;38.80;;;14.98;;
76626;SDS011;65519;53.230;10.390;2024-01-11T04:40:59;43.80;;;12.95;;
76626;SDS011;65519;53.230;10.390;2024-01-11T04:43:25;49.00;;;13.88;;
76626;SDS011;65519;53.230;10.390;2024-01-11T04:45:51;33.88;;;12.23;;
76626;SDS011;65519;53.230;10.390;2024-01-11T04:48:16;43.45;;;13.10;;
76626;SDS011;65519;53.230;10.390;2024-01-11T04:50:42;41.55;;;13.63;;
76626;SDS011;65519;53.230;10.390;2024-01-11T04:53:08;43.15;;;14.70;;
76626;SDS011;65519;53.230;10.390;2024-01-11T04:55:34;32.08;;;11.60;;
76626;SDS011;65519;53.230;10.390;2024-01-11T04:57:59;41.47;;;14.98;;
76626;SDS011;65519;53.230;10.390;2024-01-11T05:00:25;38.25;;;13.48;;
76626;SDS011;65519;53.230;10.390;2024-01-11T05:02:50;40.85;;;12.82;;
76626;SDS011;65519;53.230;10.390;2024-01-11T05:05:16;38.58;;;13.82;;
76626;SDS011;65519;53.230;10.390;2024-01-11T05:07:41;56.40;;;17.92;;
76626;SDS011;65519;53.230;10.390;2024-01-11T05:10:07;37.42;;;11.65;;
76626;SDS011;65519;53.230;10.390;2024-01-11T05:12:32;47.05;;;16.13;;
76626;SDS011;65519;53.230;10.390;2024-01-11T05:14:58;53.53;;;17.77;;
76626;SDS011;65519;53.230;10.390;2024-01-11T05:17:24;50.20;;;17.05;;
76626;SDS011;65519;53.230;10.390;2024-01-11T05:19:51;180.55;;;56.13;;
76626;SDS011;65519;53.230;10.390;2024-01-11T05:22:16;99.32;;;36.40;;
76626;SDS011;65519;53.230;10.390;2024-01-11T05:24:42;57.83;;;18.67;;
76626;SDS011;65519;53.230;10.390;2024-01-11T05:27:08;47.33;;;17.33;;
76626;SDS011;65519;53.230;10.390;2024-01-11T05:29:33;44.35;;;14.68;;
76626;SDS011;65519;53.230;10.390;2024-01-11T05:31:59;54.78;;;16.42;;
76626;SDS011;65519;53.230;10.390;2024-01-11T05:34:24;69.45;;;24.42;;
76626;SDS011;65519;53.230;10.390;2024-01-11T05:36:50;56.47;;;17.15;;
76626;SDS011;65519;53.230;10.390;2024-01-11T05:39:15;50.50;;;15.43;;
76626;SDS011;65519;53.230;10.390;2024-01-11T05:41:44;39.15;;;12.95;;
76626;SDS011;65519;53.230;10.390;2024-01-11T05:44:10;39.08;;;14.27;;
76626;SDS011;65519;53.230;10.390;2024-01-11T05:46:36;52.75;;;18.13;;
76626;SDS011;65519;53.230;10.390;2024-01-11T05:49:01;47.97;;;15.82;;
76626;SDS011;65519;53.230;10.390;2024-01-11T05:51:26;57.15;;;18.30;;
76626;SDS011;65519;53.230;10.390;2024-01-11T05:53:52;55.55;;;15.77;;
76626;SDS011;65519;53.230;10.390;2024-01-11T05:56:18;48.72;;;15.88;;
76626;SDS011;65519;53.230;10.390;2024-01-11T05:58:44;43.50;;;16.10;;
76626;SDS011;65519;53.230;10.390;2024-01-11T06:01:09;50.58;;;18.15;;
76626;SDS011;65519;53.230;10.390;2024-01-11T06:03:35;91.63;;;33.72;;
76626;SDS011;65519;53.230;10.390;2024-01-11T06:06:01;103.63;;;38.40;;
76626;SDS011;65519;53.230;10.390;2024-01-11T06:08:28;75.63;;;28.10;;
76626;SDS011;65519;53.230;10.390;2024-01-11T06:10:54;55.22;;;17.63;;
76626;SDS011;65519;53.230;10.390;2024-01-11T06:13:20;53.25;;;19.38;;
76626;SDS011;65519;53.230;10.390;2024-01-11T06:15:45;40.67;;;15.70;;
76626;SDS011;65519;53.230;10.390;2024-01-11T06:18:10;45.10;;;16.83;;
76626;SDS011;65519;53.230;10.390;2024-01-11T06:20:36;42.75;;;14.18;;
76626;SDS011;65519;53.230;10.390;2024-01-11T06:23:01;51.88;;;15.18;;
76626;SDS011;65519;53.230;10.390;2024-01-11T06:25:27;47.78;;;17.73;;
76626;SDS011;65519;53.230;10.390;2024-01-11T06:27:53;49.17;;;16.95;;
76626;SDS011;65519;53.230;10.390;2024-01-11T06:30:18;42.33;;;15.20;;
76626;SDS011;65519;53.230;10.390;2024-01-11T06:32:43;47.53;;;17.25;;
76626;SDS011;65519;53.230;10.390;2024-01-11T06:35:09;44.63;;;14.90;;
76626;SDS011;65519;53.230;10.390;2024-01-11T06:37:34;70.78;;;20.45;;
76626;SDS011;65519;53.230;10.390;2024-01-11T06:40:00;65.72;;;22.48;;
76626;SDS011;65519;53.230;10.390;2024-01-11T06:42:26;53.97;;;18.10;;
76626;SDS011;65519;53.230;10.390;2024-01-11T06:44:51;57.28;;;19.23;;
76626;SDS011;65519;53.230;10.390;2024-01-11T06:47:16;72.57;;;18.38;;
76626;SDS011;65519;53.230;10.390;2024-01-11T06:49:42;54.75;;;17.52;;
76626;SDS011;65519;53.230;10.390;2024-01-11T06:52:07;50.28;;;17.30;;
76626;SDS011;65519;53.230;10.390;2024-01-11T06:54:33;48.05;;;15.25;;
76626;SDS011;65519;53.230;10.390;2024-01-11T06:56:58;67.47;;;19.35;;
76626;SDS011;65519;53.230;10.390;2024-01-11T06:59:24;65.78;;;18.52;;
76626;SDS011;65519;53.230;10.390;2024-01-11T07:01:49;54.10;;;18.48;;
76626;SDS011;65519;53.230;10.390;2024-01-11T07:04:15;55.30;;;17.55;;
76626;SDS011;65519;53.230;10.390;2024-01-11T07:06:40;99.13;;;31.83;;
76626;SDS011;65519;53.230;10.390;2024-01-11T07:09:06;126.10;;;39.50;;
76626;SDS011;65519;53.230;10.390;2024-01-11T07:11:31;71.65;;;23.30;;
76626;SDS011;65519;53.230;10.390;2024-01-11T07:13:57;66.43;;;21.45;;
76626;SDS011;65519;53.230;10.390;2024-01-11T07:16:23;77.40;;;24.08;;
76626;SDS011;65519;53.230;10.390;2024-01-11T07:18:49;69.93;;;21.63;;
76626;SDS011;65519;53.230;10.390;2024-01-11T07:21:23;73.13;;;19.00;;
76626;SDS011;65519;53.230;10.390;2024-01-11T07:23:58;71.88;;;22.27;;
76626;SDS011;65519;53.230;10.390;2024-01-11T07:26:24;100.03;;;34.22;;
76626;SDS011;65519;53.230;10.390;2024-01-11T07:28:50;80.13;;;23.80;;
76626;SDS011;65519;53.230;10.390;2024-01-11T07:31:16;63.22;;;18.88;;
76626;SDS011;65519;53.230;10.390;2024-01-11T07:33:42;68.43;;;20.27;;
76626;SDS011;65519;53.230;10.390;2024-01-11T07:36:07;61.67;;;18.25;;
76626;SDS011;65519;53.230;10.390;2024-01-11T07:38:34;82.18;;;22.88;;
76626;SDS011;65519;53.230;10.390;2024-01-11T07:41:00;128.25;;;42.17;;
76626;SDS011;65519;53.230;10.390;2024-01-11T07:43:26;57.03;;;18.95;;
76626;SDS011;65519;53.230;10.390;2024-01-11T07:45:54;65.20;;;19.48;;
76626;SDS011;65519;53.230;10.390;2024-01-11T07:48:21;62.97;;;16.85;;
76626;SDS011;65519;53.230;10.390;2024-01-11T07:50:48;58.60;;;17.92;;
76626;SDS011;65519;53.230;10.390;2024-01-11T07:53:13;65.63;;;17.52;;
76626;SDS011;65519;53.230;10.390;2024-01-11T07:55:40;58.58;;;17.08;;
76626;SDS011;65519;53.230;10.390;2024-01-11T07:58:05;58.15;;;17.15;;
76626;SDS011;65519;53.230;10.390;2024-01-11T08:00:31;63.47;;;20.95;;
76626;SDS011;65519;53.230;10.390;2024-01-11T08:02:57;57.75;;;17.38;;
76626;SDS011;65519;53.230;10.390;2024-01-11T08:05:22;51.58;;;15.35;;
76626;SDS011;65519;53.230;10.390;2024-01-11T08:07:48;48.47;;;14.93;;
76626;SDS011;65519;53.230;10.390;2024-01-11T08:10:14;46.33;;;14.45;;
76626;SDS011;65519;53.230;10.390;2024-01-11T08:12:39;57.38;;;15.88;;
76626;SDS011;65519;53.230;10.390;2024-01-11T08:15:05;52.50;;;16.25;;
76626;SDS011;65519;53.230;10.390;2024-01-11T08:17:30;63.40;;;18.58;;
76626;SDS011;65519;53.230;10.390;2024-01-11T08:19:56;75.70;;;23.23;;
76626;SDS011;65519;53.230;10.390;2024-01-11T08:22:21;65.53;;;18.80;;
76626;SDS011;65519;53.230;10.390;2024-01-11T08:24:48;47.90;;;14.13;;
76626;SDS011;65519;53.230;10.390;2024-01-11T08:27:13;52.83;;;15.45;;
76626;SDS011;65519;53.230;10.390;2024-01-11T08:29:42;56.88;;;16.63;;
76626;SDS011;65519;53.230;10.390;2024-01-11T08:32:08;46.92;;;15.27;;
76626;SDS011;65519;53.230;10.390;2024-01-11T08:34:34;57.83;;;16.00;;
76626;SDS011;65519;53.230;10.390;2024-01-11T08:36:59;51.15;;;15.50;;
76626;SDS011;65519;53.230;10.390;2024-01-11T08:39:25;60.50;;;13.48;;
76626;SDS011;65519;53.230;10.390;2024-01-11T08:41:50;56.25;;;16.05;;
76626;SDS011;65519;53.230;10.390;2024-01-11T08:44:15;65.22;;;19.55;;
76626;SDS011;65519;53.230;10.390;2024-01-11T08:46:41;57.20;;;16.35;;
76626;SDS011;65519;53.230;10.390;2024-01-11T08:49:07;50.15;;;16.52;;
76626;SDS011;65519;53.230;10.390;2024-01-11T08:51:33;58.17;;;17.15;;
76626;SDS011;65519;53.230;10.390;2024-01-11T08:53:58;61.53;;;17.67;;
76626;SDS011;65519;53.230;10.390;2024-01-11T08:56:24;55.35;;;14.60;;
76626;SDS011;65519;53.230;10.390;2024-01-11T08:58:50;65.88;;;16.58;;
76626;SDS011;65519;53.230;10.390;2024-01-11T09:01:16;55.92;;;14.80;;
76626;SDS011;65519;53.230;10.390;2024-01-11T09:03:43;55.03;;;17.00;;
76626;SDS011;65519;53.230;10.390;2024-01-11T09:06:08;50.22;;;14.35;;
76626;SDS011;65519;53.230;10.390;2024-01-11T09:08:34;49.83;;;13.90;;
76626;SDS011;65519;53.230;10.390;2024-01-11T09:10:59;53.97;;;14.00;;
76626;SDS011;65519;53.230;10.390;2024-01-11T09:13:25;57.67;;;14.80;;
76626;SDS011;65519;53.230;10.390;2024-01-11T09:15:52;50.72;;;14.25;;
76626;SDS011;65519;53.230;10.390;2024-01-11T09:18:19;57.15;;;15.73;;
76626;SDS011;65519;53.230;10.390;2024-01-11T09:20:44;61.00;;;15.98;;
76626;SDS011;65519;53.230;10.390;2024-01-11T09:23:10;53.22;;;16.60;;
76626;SDS011;65519;53.230;10.390;2024-01-11T09:25:35;66.50;;;19.42;;
76626;SDS011;65519;53.230;10.390;2024-01-11T09:28:01;58.63;;;16.65;;
76626;SDS011;65519;53.230;10.390;2024-01-11T09:30:26;62.78;;;16.00;;
76626;SDS011;65519;53.230;10.390;2024-01-11T09:32:52;49.17;;;13.85;;
76626;SDS011;65519;53.230;10.390;2024-01-11T09:35:18;46.08;;;13.75;;
76626;SDS011;65519;53.230;10.390;2024-01-11T09:37:43;53.10;;;16.40;;
76626;SDS011;65519;53.230;10.390;2024-01-11T09:40:11;50.42;;;15.02;;
76626;SDS011;65519;53.230;10.390;2024-01-11T09:42:37;48.85;;;14.30;;
76626;SDS011;65519;53.230;10.390;2024-01-11T09:45:06;42.53;;;12.82;;
76626;SDS011;65519;53.230;10.390;2024-01-11T09:47:34;62.85;;;15.07;;
76626;SDS011;65519;53.230;10.390;2024-01-11T09:50:02;55.83;;;18.67;;
76626;SDS011;65519;53.230;10.390;2024-01-11T09:52:28;47.30;;;14.15;;
76626;SDS011;65519;53.230;10.390;2024-01-11T09:54:57;51.58;;;13.32;;
76626;SDS011;65519;53.230;10.390;2024-01-11T09:57:29;48.65;;;13.38;;
76626;SDS011;65519;53.230;10.390;2024-01-11T09:59:56;42.92;;;11.43;;
76626;SDS011;65519;53.230;10.390;2024-01-11T10:02:23;47.88;;;12.57;;
76626;SDS011;65519;53.230;10.390;2024-01-11T10:04:50;43.33;;;13.32;;
76626;SDS011;65519;53.230;10.390;2024-01-11T10:07:18;44.00;;;12.50;;
76626;SDS011;65519;53.230;10.390;2024-01-11T10:09:46;51.97;;;12.60;;
76626;SDS011;65519;53.230;10.390;2024-01-11T10:12:12;52.60;;;16.85;;
76626;SDS011;65519;53.230;10.390;2024-01-11T10:14:38;44.17;;;15.23;;
76626;SDS011;65519;53.230;10.390;2024-01-11T10:17:03;37.53;;;12.32;;
76626;SDS011;65519;53.230;10.390;2024-01-11T10:19:29;39.92;;;12.13;;
76626;SDS011;65519;53.230;10.390;2024-01-11T10:21:55;33.22;;;9.60;;
76626;SDS011;65519;53.230;10.390;2024-01-11T10:24:20;46.33;;;12.05;;
76626;SDS011;65519;53.230;10.390;2024-01-11T10:26:47;52.75;;;13.32;;
76626;SDS011;65519;53.230;10.390;2024-01-11T10:29:12;43.13;;;11.23;;
76626;SDS011;65519;53.230;10.390;2024-01-11T10:31:38;46.67;;;12.52;;
76626;SDS011;65519;53.230;10.390;2024-01-11T10:34:04;51.95;;;13.18;;
76626;SDS011;65519;53.230;10.390;2024-01-11T10:36:31;51.58;;;13.25;;
76626;SDS011;65519;53.230;10.390;2024-01-11T10:38:58;41.72;;;11.70;;
76626;SDS011;65519;53.230;10.390;2024-01-11T10:41:29;36.33;;;10.55;;
76626;SDS011;65519;53.230;10.390;2024-01-11T10:44:02;52.10;;;14.45;;
76626;SDS011;65519;53.230;10.390;2024-01-11T10:46:29;37.38;;;11.88;;
76626;SDS011;65519;53.230;10.390;2024-01-11T10:48:57;48.83;;;15.23;;
76626;SDS011;65519;53.230;10.390;2024-01-11T10:51:24;54.50;;;16.40;;
76626;SDS011;65519;53.230;10.390;2024-01-11T10:53:53;46.90;;;13.43;;
76626;SDS011;65519;53.230;10.390;2024-01-11T10:56:19;40.97;;;10.80;;
76626;SDS011;65519;53.230;10.390;2024-01-11T10:58:45;34.00;;;9.82;;
76626;SDS011;65519;53.230;10.390;2024-01-11T11:01:12;32.33;;;10.20;;
76626;SDS011;65519;53.230;10.390;2024-01-11T11:03:38;33.03;;;9.57;;
76626;SDS011;65519;53.230;10.390;2024-01-11T11:06:06;37.22;;;11.13;;
76626;SDS011;65519;53.230;10.390;2024-01-11T11:08:33;36.90;;;10.50;;
76626;SDS011;65519;53.230;10.390;2024-01-11T11:11:02;40.92;;;10.52;;
76626;SDS011;65519;53.230;10.390;2024-01-11T11:13:32;46.45;;;12.23;;
76626;SDS011;65519;53.230;10.390;2024-01-11T11:16:00;43.75;;;10.65;;
76626;SDS011;65519;53.230;10.390;2024-01-11T11:18:28;48.58;;;11.85;;
76626;SDS011;65519;53.230;10.390;2024-01-11T11:20:54;42.00;;;11.02;;
76626;SDS011;65519;53.230;10.390;2024-01-11T11:23:20;44.00;;;11.85;;
76626;SDS011;65519;53.230;10.390;2024-01-11T11:25:46;41.05;;;11.63;;
76626;SDS011;65519;53.230;10.390;2024-01-11T11:28:13;46.30;;;12.63;;
76626;SDS011;65519;53.230;10.390;2024-01-11T11:30:42;40.22;;;12.38;;
76626;SDS011;65519;53.230;10.390;2024-01-11T11:35:48;45.03;;;13.23;;
76626;SDS011;65519;53.230;10.390;2024-01-11T11:38:17;40.65;;;12.88;;
76626;SDS011;65519;53.230;10.390;2024-01-11T11:40:46;48.33;;;13.55;;
76626;SDS011;65519;53.230;10.390;2024-01-11T11:43:15;43.30;;;13.40;;
76626;SDS011;65519;53.230;10.390;2024-01-11T11:45:41;48.58;;;13.52;;
76626;SDS011;65519;53.230;10.390;2024-01-11T11:51:11;36.45;;;11.35;;
76626;SDS011;65519;53.230;10.390;2024-01-11T11:53:37;38.42;;;11.80;;
76626;SDS011;65519;53.230;10.390;2024-01-11T11:56:03;47.83;;;12.00;;
76626;SDS011;65519;53.230;10.390;2024-01-11T11:58:30;54.22;;;15.55;;
76626;SDS011;65519;53.230;10.390;2024-01-11T12:01:00;53.53;;;16.23;;
76626;SDS011;65519;53.230;10.390;2024-01-11T12:03:30;61.50;;;21.00;;
76626;SDS011;65519;53.230;10.390;2024-01-11T12:05:57;58.13;;;16.85;;
76626;SDS011;65519;53.230;10.390;2024-01-11T12:08:23;59.70;;;13.52;;
76626;SDS011;65519;53.230;10.390;2024-01-11T12:10:48;47.83;;;12.30;;
76626;SDS011;65519;53.230;10.390;2024-01-11T12:13:14;42.88;;;11.40;;
76626;SDS011;65519;53.230;10.390;2024-01-11T12:15:40;41.67;;;11.20;;
76626;SDS011;65519;53.230;10.390;2024-01-11T12:18:06;31.02;;;11.98;;
76626;SDS011;65519;53.230;10.390;2024-01-11T12:20:32;37.30;;;11.63;;
76626;SDS011;65519;53.230;10.390;2024-01-11T12:22:58;38.47;;;11.15;;
76626;SDS011;65519;53.230;10.390;2024-01-11T12:25:24;45.15;;;11.95;;
76626;SDS011;65519;53.230;10.390;2024-01-11T12:27:50;41.05;;;12.70;;
76626;SDS011;65519;53.230;10.390;2024-01-11T12:30:21;35.30;;;11.07;;
76626;SDS011;65519;53.230;10.390;2024-01-11T12:32:48;54.35;;;13.10;;
76626;SDS011;65519;53.230;10.390;2024-01-11T12:35:14;39.25;;;10.73;;
76626;SDS011;65519;53.230;10.390;2024-01-11T12:37:41;38.33;;;12.02;;
76626;SDS011;65519;53.230;10.390;2024-01-11T12:40:06;47.03;;;12.50;;
76626;SDS011;65519;53.230;10.390;2024-01-11T12:42:35;51.85;;;11.63;;
76626;SDS011;65519;53.230;10.390;2024-01-11T12:45:01;35.88;;;9.75;;
76626;SDS011;65519;53.230;10.390;2024-01-11T12:47:26;41.25;;;10.98;;
76626;SDS011;65519;53.230;10.390;2024-01-11T12:49:52;47.95;;;11.88;;
76626;SDS011;65519;53.230;10.390;2024-01-11T12:52:18;35.97;;;10.80;;
76626;SDS011;65519;53.230;10.390;2024-01-11T12:54:51;44.33;;;11.38;;
76626;SDS011;65519;53.230;10.390;2024-01-11T12:57:18;33.95;;;10.45;;
76626;SDS011;65519;53.230;10.390;2024-01-11T12:59:47;31.60;;;10.55;;
76626;SDS011;65519;53.230;10.390;2024-01-11T13:02:13;59.30;;;16.73;;
76626;SDS011;65519;53.230;10.390;2024-01-11T13:04:42;60.88;;;21.65;;
76626;SDS011;65519;53.230;10.390;2024-01-11T13:07:10;95.28;;;36.03;;
76626;SDS011;65519;53.230;10.390;2024-01-11T13:09:37;91.57;;;32.15;;
76626;SDS011;65519;53.230;10.390;2024-01-11T13:12:03;97.38;;;36.42;;
76626;SDS011;65519;53.230;10.390;2024-01-11T13:14:28;120.43;;;42.40;;
76626;SDS011;65519;53.230;10.390;2024-01-11T13:16:54;80.22;;;28.15;;
76626;SDS011;65519;53.230;10.390;2024-01-11T13:19:20;56.97;;;19.45;;
76626;SDS011;65519;53.230;10.390;2024-01-11T13:21:45;61.40;;;18.45;;
76626;SDS011;65519;53.230;10.390;2024-01-11T13:24:10;42.38;;;12.10;;
76626;SDS011;65519;53.230;10.390;2024-01-11T13:26:38;36.17;;;12.43;;
76626;SDS011;65519;53.230;10.390;2024-01-11T13:29:07;41.17;;;11.90;;
76626;SDS011;65519;53.230;10.390;2024-01-11T13:33:58;37.88;;;11.07;;
76626;SDS011;65519;53.230;10.390;2024-01-11T13:36:23;42.78;;;11.07;;
76626;SDS011;65519;53.230;10.390;2024-01-11T13:38:49;39.10;;;12.10;;
76626;SDS011;65519;53.230;10.390;2024-01-11T13:41:15;40.50;;;13.30;;
76626;SDS011;65519;53.230;10.390;2024-01-11T13:43:42;46.15;;;12.45;;
76626;SDS011;65519;53.230;10.390;2024-01-11T13:46:08;47.25;;;13.98;;
76626;SDS011;65519;53.230;10.390;2024-01-11T13:48:34;47.15;;;13.30;;
76626;SDS011;65519;53.230;10.390;2024-01-11T13:51:00;32.90;;;12.07;;
76626;SDS011;65519;53.230;10.390;2024-01-11T13:53:28;40.92;;;10.88;;
76626;SDS011;65519;53.230;10.390;2024-01-11T13:55:54;32.25;;;11.20;;
76626;SDS011;65519;53.230;10.390;2024-01-11T13:58:20;39.63;;;13.30;;
76626;SDS011;65519;53.230;10.390;2024-01-11T14:00:46;59.53;;;17.70;;
76626;SDS011;65519;53.230;10.390;2024-01-11T14:03:12;66.88;;;20.27;;
76626;SDS011;65519;53.230;10.390;2024-01-11T14:05:37;48.97;;;16.48;;
76626;SDS011;65519;53.230;10.390;2024-01-11T14:08:03;48.75;;;15.25;;
76626;SDS011;65519;53.230;10.390;2024-01-11T14:10:32;40.97;;;12.65;;
76626;SDS011;65519;53.230;10.390;2024-01-11T14:12:59;44.03;;;12.05;;